createdAt,value
2023-05-15T00:00:53.165Z,31.18
2023-05-15T00:01:53.229Z,31.16
2023-05-15T00:02:53.337Z,31.25
2023-05-15T00:03:53.339Z,31.17
2023-05-15T00:04:53.442Z,31.14
2023-05-15T00:05:53.411Z,31.17
2023-05-15T00:06:53.554Z,31.20
2023-05-15T00:07:53.559Z,31.22
2023-05-15T00:08:53.633Z,31.10
2023-05-15T00:09:53.665Z,31.25
2023-05-15T00:11:01.308Z,31.20
2023-05-15T00:11:54.723Z,31.16
2023-05-15T00:12:53.724Z,31.21
2023-05-15T00:13:53.728Z,31.18
2023-05-15T00:14:53.725Z,31.18
2023-05-15T00:15:53.756Z,31.17
2023-05-15T00:16:53.712Z,31.19
2023-05-15T00:17:53.777Z,31.17
2023-05-15T00:18:53.882Z,31.18
2023-05-15T00:19:53.812Z,31.20
2023-05-15T00:20:53.868Z,31.20
2023-05-15T00:21:53.937Z,31.17
2023-05-15T00:22:53.990Z,31.17
2023-05-15T00:23:54.107Z,31.22
2023-05-15T00:24:54.158Z,31.17
2023-05-15T00:25:54.167Z,31.21
2023-05-15T00:26:54.272Z,31.17
2023-05-15T00:27:54.271Z,31.19
2023-05-15T00:28:54.319Z,31.22
2023-05-15T00:29:54.410Z,31.18
2023-05-15T00:30:54.498Z,31.16
2023-05-15T00:31:54.699Z,31.14
2023-05-15T00:32:54.615Z,31.17
2023-05-15T00:33:54.634Z,31.16
2023-05-15T00:34:54.718Z,31.18
2023-05-15T00:35:54.789Z,31.16
2023-05-15T00:36:54.834Z,31.19
2023-05-15T00:37:54.881Z,31.23
2023-05-15T00:38:54.945Z,31.15
2023-05-15T00:39:54.980Z,31.15
2023-05-15T00:40:55.097Z,31.21
2023-05-15T00:41:55.117Z,31.19
2023-05-15T00:42:55.252Z,31.15
2023-05-15T00:43:55.245Z,31.19
2023-05-15T00:44:55.315Z,31.19
2023-05-15T00:45:55.388Z,31.21
2023-05-15T00:46:55.525Z,31.18
2023-05-15T00:47:55.566Z,31.18
2023-05-15T00:48:55.576Z,31.18
2023-05-15T00:49:55.666Z,31.23
2023-05-15T00:50:55.742Z,31.25
2023-05-15T00:51:55.776Z,31.18
2023-05-15T00:52:55.787Z,31.20
2023-05-15T00:53:55.931Z,31.22
2023-05-15T00:54:55.914Z,31.25
2023-05-15T00:55:56.016Z,31.18
2023-05-15T00:56:56.035Z,31.22
2023-05-15T00:57:56.134Z,31.18
2023-05-15T00:58:56.197Z,31.22
2023-05-15T00:59:56.235Z,31.18
2023-05-15T01:00:56.349Z,31.22
2023-05-15T01:01:56.355Z,31.22
2023-05-15T01:02:56.525Z,31.21
2023-05-15T01:03:56.479Z,31.21
2023-05-15T01:04:56.501Z,31.18
2023-05-15T01:05:56.562Z,31.22
2023-05-15T01:06:56.621Z,31.24
2023-05-15T01:07:56.680Z,31.22
2023-05-15T01:08:56.750Z,31.19
2023-05-15T01:09:56.823Z,31.22
2023-05-15T01:10:56.865Z,31.19
2023-05-15T01:11:56.945Z,31.23
2023-05-15T01:12:57.021Z,31.16
2023-05-15T01:13:57.568Z,31.22
2023-05-15T01:14:57.149Z,31.23
2023-05-15T01:15:57.176Z,31.23
2023-05-15T01:16:57.248Z,31.20
2023-05-15T01:17:57.282Z,31.19
2023-05-15T01:18:57.348Z,31.19
2023-05-15T01:19:57.587Z,31.23
2023-05-15T01:20:57.454Z,31.22
2023-05-15T01:21:57.516Z,31.22
2023-05-15T01:22:57.579Z,31.22
2023-05-15T01:23:57.634Z,31.20
2023-05-15T01:24:57.637Z,31.24
2023-05-15T01:25:57.670Z,31.24
2023-05-15T01:26:57.754Z,31.19
2023-05-15T01:27:57.786Z,31.23
2023-05-15T01:28:57.825Z,31.19
2023-05-15T01:29:57.868Z,31.24
2023-05-15T01:30:57.933Z,31.23
2023-05-15T01:31:57.989Z,31.20
2023-05-15T01:32:58.037Z,31.23
2023-05-15T01:33:58.027Z,31.24
2023-05-15T01:34:58.046Z,31.20
2023-05-15T01:35:58.104Z,31.20
2023-05-15T01:36:58.211Z,31.21
2023-05-15T01:37:58.217Z,31.16
2023-05-15T01:38:58.327Z,31.21
2023-05-15T01:39:58.361Z,31.24
2023-05-15T01:40:58.397Z,31.20
2023-05-15T01:41:58.472Z,31.16
2023-05-15T01:42:58.528Z,31.20
2023-05-15T01:43:58.598Z,31.20
2023-05-15T01:44:58.637Z,31.24
2023-05-15T01:45:58.731Z,31.26
2023-05-15T01:46:58.754Z,31.20
2023-05-15T01:47:58.853Z,31.26
2023-05-15T01:48:58.872Z,31.26
2023-05-15T01:49:58.909Z,31.23
2023-05-15T01:50:58.940Z,31.21
2023-05-15T01:51:59.027Z,31.24
2023-05-15T01:52:59.072Z,31.24
2023-05-15T01:53:59.116Z,31.20
2023-05-15T01:54:59.174Z,31.24
2023-05-15T01:55:59.234Z,31.23
2023-05-15T01:56:59.282Z,31.23
2023-05-15T01:57:59.345Z,31.26
2023-05-15T01:58:59.431Z,31.19
2023-05-15T01:59:59.464Z,31.24
2023-05-15T02:00:59.487Z,31.21
2023-05-15T02:01:59.591Z,31.24
2023-05-15T02:02:59.707Z,31.23
2023-05-15T02:03:59.640Z,31.27
2023-05-15T02:04:59.592Z,31.20
2023-05-15T02:05:59.657Z,31.23
2023-05-15T02:06:59.667Z,31.29
2023-05-15T02:07:59.723Z,31.20
2023-05-15T02:08:59.798Z,31.23
2023-05-15T02:09:59.799Z,31.23
2023-05-15T02:10:59.804Z,31.25
2023-05-15T02:11:59.837Z,31.23
2023-05-15T02:12:59.837Z,31.23
2023-05-15T02:13:59.921Z,31.23
2023-05-15T02:14:59.916Z,31.24
2023-05-15T02:16:00.186Z,31.24
2023-05-15T02:17:00.017Z,31.26
2023-05-15T02:18:00.113Z,31.27
2023-05-15T02:19:00.220Z,31.21
2023-05-15T02:20:00.164Z,31.21
2023-05-15T02:21:00.262Z,31.27
2023-05-15T02:22:00.213Z,31.24
2023-05-15T02:23:00.303Z,31.24
2023-05-15T02:24:00.296Z,31.28
2023-05-15T02:25:00.388Z,31.26
2023-05-15T02:26:00.380Z,31.24
2023-05-15T02:27:00.441Z,31.24
2023-05-15T02:28:00.468Z,31.21
2023-05-15T02:29:00.485Z,31.24
2023-05-15T02:30:00.576Z,31.20
2023-05-15T02:31:00.552Z,31.25
2023-05-15T02:32:00.635Z,31.28
2023-05-15T02:33:01.213Z,31.24
2023-05-15T02:34:00.698Z,31.25
2023-05-15T02:35:00.755Z,31.28
2023-05-15T02:36:00.791Z,31.28
2023-05-15T02:37:00.873Z,31.27
2023-05-15T02:38:00.982Z,31.21
2023-05-15T02:39:00.933Z,31.32
2023-05-15T02:40:01.027Z,31.23
2023-05-15T02:41:01.063Z,31.25
2023-05-15T02:42:01.137Z,31.31
2023-05-15T02:43:01.184Z,31.28
2023-05-15T02:44:01.216Z,31.24
2023-05-15T02:45:01.258Z,31.25
2023-05-15T02:46:01.354Z,31.25
2023-05-15T02:47:01.344Z,31.27
2023-05-15T02:48:01.439Z,31.31
2023-05-15T02:49:01.457Z,31.22
2023-05-15T02:50:01.489Z,31.28
2023-05-15T02:51:01.530Z,31.26
2023-05-15T02:52:01.534Z,31.23
2023-05-15T02:53:01.564Z,31.23
2023-05-15T02:54:01.640Z,31.22
2023-05-15T02:55:01.726Z,31.29
2023-05-15T02:56:01.703Z,31.26
2023-05-15T02:57:01.745Z,31.25
2023-05-15T02:58:01.795Z,31.23
2023-05-15T02:59:01.832Z,31.21
2023-05-15T03:00:01.878Z,31.22
2023-05-15T03:01:02.019Z,31.25
2023-05-15T03:02:01.949Z,31.29
2023-05-15T03:03:02.030Z,31.25
2023-05-15T03:04:02.092Z,31.25
2023-05-15T03:05:02.111Z,31.26
2023-05-15T03:06:02.120Z,31.25
2023-05-15T03:07:02.145Z,31.29
2023-05-15T03:08:02.239Z,31.26
2023-05-15T03:09:02.281Z,31.28
2023-05-15T03:10:02.317Z,31.28
2023-05-15T03:11:02.362Z,31.28
2023-05-15T03:12:02.376Z,31.28
2023-05-15T03:13:02.435Z,31.31
2023-05-15T03:14:02.466Z,31.23
2023-05-15T03:15:02.489Z,31.25
2023-05-15T03:16:02.574Z,31.21
2023-05-15T03:17:02.622Z,31.26
2023-05-15T03:18:02.741Z,31.29
2023-05-15T03:19:02.784Z,31.27
2023-05-15T03:20:02.728Z,31.28
2023-05-15T03:21:02.758Z,31.23
2023-05-15T03:22:02.775Z,31.31
2023-05-15T03:23:02.817Z,31.26
2023-05-15T03:24:02.862Z,31.29
2023-05-15T03:25:02.907Z,31.26
2023-05-15T03:26:02.931Z,31.26
2023-05-15T03:27:02.972Z,31.26
2023-05-15T03:28:02.990Z,31.26
2023-05-15T03:29:03.032Z,31.29
2023-05-15T03:30:03.006Z,31.30
2023-05-15T03:31:03.041Z,31.29
2023-05-15T03:32:03.032Z,31.29
2023-05-15T03:33:03.040Z,31.25
2023-05-15T03:34:03.048Z,31.26
2023-05-15T03:35:03.033Z,31.30
2023-05-15T03:36:03.024Z,31.26
2023-05-15T03:37:03.055Z,31.25
2023-05-15T03:38:03.027Z,31.23
2023-05-15T03:39:03.042Z,31.29
2023-05-15T03:40:03.047Z,31.29
2023-05-15T03:41:03.002Z,31.28
2023-05-15T03:42:03.046Z,31.29
2023-05-15T03:43:03.009Z,31.29
2023-05-15T03:44:03.035Z,31.32
2023-05-15T03:45:03.067Z,31.29
2023-05-15T03:46:03.018Z,31.25
2023-05-15T03:47:03.176Z,31.30
2023-05-15T03:48:03.042Z,31.25
2023-05-15T03:49:03.076Z,31.23
2023-05-15T03:50:03.028Z,31.32
2023-05-15T03:51:03.039Z,31.27
2023-05-15T03:52:03.040Z,31.29
2023-05-15T03:53:03.094Z,31.26
2023-05-15T03:54:03.082Z,31.30
2023-05-15T03:55:03.034Z,31.25
2023-05-15T03:56:03.075Z,31.26
2023-05-15T03:57:03.057Z,31.25
2023-05-15T03:58:03.091Z,31.26
2023-05-15T03:59:03.094Z,31.26
2023-05-15T04:00:03.065Z,31.30
2023-05-15T04:01:03.124Z,31.33
2023-05-15T04:02:04.830Z,31.30
2023-05-15T04:03:03.202Z,31.28
2023-05-15T04:04:03.161Z,31.22
2023-05-15T04:05:03.182Z,31.19
2023-05-15T04:06:03.133Z,31.23
2023-05-15T04:07:03.171Z,31.22
2023-05-15T04:08:03.170Z,31.16
2023-05-15T04:09:03.165Z,31.17
2023-05-15T04:10:03.172Z,31.19
2023-05-15T04:11:03.151Z,31.21
2023-05-15T04:12:03.197Z,31.19
2023-05-15T04:13:03.197Z,31.18
2023-05-15T04:14:03.208Z,31.20
2023-05-15T04:15:03.198Z,31.18
2023-05-15T04:16:03.283Z,31.18
2023-05-15T04:17:03.288Z,31.15
2023-05-15T04:18:03.305Z,31.19
2023-05-15T04:19:03.352Z,31.21
2023-05-15T04:20:03.349Z,31.23
2023-05-15T04:21:03.343Z,31.21
2023-05-15T04:22:03.387Z,31.19
2023-05-15T04:23:03.402Z,31.19
2023-05-15T04:24:03.503Z,31.20
2023-05-15T04:25:03.455Z,31.27
2023-05-15T04:26:03.458Z,31.23
2023-05-15T04:27:03.539Z,31.24
2023-05-15T04:28:03.530Z,31.24
2023-05-15T04:29:04.709Z,31.23
2023-05-15T04:30:03.612Z,31.26
2023-05-15T04:31:03.643Z,31.23
2023-05-15T04:32:03.695Z,31.24
2023-05-15T04:33:03.723Z,31.21
2023-05-15T04:34:03.754Z,31.23
2023-05-15T04:35:03.820Z,31.24
2023-05-15T04:36:03.829Z,31.30
2023-05-15T04:37:03.865Z,31.26
2023-05-15T04:38:03.844Z,31.27
2023-05-15T04:39:03.891Z,31.26
2023-05-15T04:40:03.888Z,31.30
2023-05-15T04:41:03.919Z,31.23
2023-05-15T04:42:03.895Z,31.22
2023-05-15T04:43:03.913Z,31.23
2023-05-15T04:44:03.957Z,31.21
2023-05-15T04:45:03.955Z,31.18
2023-05-15T04:46:04.036Z,31.16
2023-05-15T04:47:03.960Z,31.19
2023-05-15T04:48:04.068Z,31.19
2023-05-15T04:49:04.008Z,31.12
2023-05-15T04:50:03.999Z,31.17
2023-05-15T04:51:04.075Z,31.16
2023-05-15T04:52:04.029Z,31.08
2023-05-15T04:53:04.045Z,31.14
2023-05-15T04:54:04.010Z,31.08
2023-05-15T04:55:04.009Z,31.12
2023-05-15T04:56:04.028Z,31.07
2023-05-15T04:57:04.041Z,31.07
2023-05-15T04:58:04.057Z,31.08
2023-05-15T04:59:04.048Z,31.07
2023-05-15T05:00:04.022Z,31.06
2023-05-15T05:01:04.459Z,31.03
2023-05-15T05:02:04.151Z,31.07
2023-05-15T05:03:04.128Z,31.21
2023-05-15T05:04:04.230Z,31.30
2023-05-15T05:05:04.134Z,31.37
2023-05-15T05:06:04.150Z,31.39
2023-05-15T05:07:04.135Z,31.41
2023-05-15T05:08:04.200Z,31.49
2023-05-15T05:09:04.227Z,31.54
2023-05-15T05:10:04.439Z,31.70
2023-05-15T05:11:04.317Z,31.71
2023-05-15T05:12:04.352Z,31.76
2023-05-15T05:13:04.416Z,31.84
2023-05-15T05:14:04.428Z,31.93
2023-05-15T05:15:04.539Z,32.01
2023-05-15T05:16:04.616Z,32.21
2023-05-15T05:17:04.568Z,32.30
2023-05-15T05:18:04.596Z,32.42
2023-05-15T05:19:04.562Z,32.61
2023-05-15T05:20:04.603Z,32.79
2023-05-15T05:21:04.690Z,32.80
2023-05-15T05:22:04.633Z,32.84
2023-05-15T05:23:04.661Z,32.95
2023-05-15T05:24:04.686Z,33.28
2023-05-15T05:25:04.715Z,33.00
2023-05-15T05:26:06.126Z,33.00
2023-05-15T05:27:04.742Z,32.92
2023-05-15T05:28:04.730Z,32.86
2023-05-15T05:29:04.744Z,32.79
2023-05-15T05:30:04.708Z,32.65
2023-05-15T05:31:04.732Z,32.63
2023-05-15T05:32:04.725Z,32.71
2023-05-15T05:33:04.768Z,32.77
2023-05-15T05:34:04.766Z,32.87
2023-05-15T05:35:04.787Z,33.09
2023-05-15T05:36:04.851Z,33.09
2023-05-15T05:37:04.918Z,33.20
2023-05-15T05:38:05.005Z,33.51
2023-05-15T05:39:05.032Z,33.67
2023-05-15T05:40:05.045Z,33.64
2023-05-15T05:41:05.101Z,33.44
2023-05-15T05:42:05.169Z,33.73
2023-05-15T05:43:05.258Z,33.53
2023-05-15T05:44:05.252Z,33.76
2023-05-15T05:45:05.219Z,34.21
2023-05-15T05:46:05.257Z,34.51
2023-05-15T05:47:05.322Z,34.56
2023-05-15T05:48:05.440Z,34.75
2023-05-15T05:49:05.696Z,34.46
2023-05-15T05:50:05.514Z,34.42
2023-05-15T05:51:05.513Z,34.39
2023-05-15T05:52:05.485Z,34.35
2023-05-15T05:53:05.687Z,34.51
2023-05-15T05:54:05.516Z,34.92
2023-05-15T05:55:05.550Z,34.95
2023-05-15T05:56:05.661Z,34.67
2023-05-15T05:57:07.679Z,34.61
2023-05-15T05:58:11.682Z,34.50
2023-05-15T05:59:06.597Z,34.40
2023-05-15T06:00:05.609Z,34.36
2023-05-15T06:01:05.605Z,34.50
2023-05-15T06:02:06.784Z,34.30
2023-05-15T06:03:05.664Z,34.29
2023-05-15T06:04:05.697Z,34.24
2023-05-15T06:05:05.568Z,34.27
2023-05-15T06:06:05.533Z,34.14
2023-05-15T06:07:05.571Z,34.18
2023-05-15T06:08:05.625Z,34.14
2023-05-15T06:09:05.528Z,33.98
2023-05-15T06:10:05.558Z,33.91
2023-05-15T06:11:05.571Z,33.71
2023-05-15T06:12:05.645Z,33.62
2023-05-15T06:13:05.656Z,33.57
2023-05-15T06:14:05.736Z,33.51
2023-05-15T06:15:05.804Z,33.72
2023-05-15T06:16:05.817Z,33.54
2023-05-15T06:17:05.914Z,33.74
2023-05-15T06:18:05.883Z,33.81
2023-05-15T06:19:05.875Z,34.10
2023-05-15T06:20:05.915Z,34.21
2023-05-15T06:21:05.944Z,34.33
2023-05-15T06:22:05.928Z,34.72
2023-05-15T06:23:06.002Z,34.91
2023-05-15T06:24:06.040Z,35.04
2023-05-15T06:25:06.036Z,35.22
2023-05-15T06:26:06.069Z,35.13
2023-05-15T06:27:06.140Z,35.10
2023-05-15T06:28:06.175Z,34.92
2023-05-15T06:29:06.184Z,34.75
2023-05-15T06:30:06.214Z,34.85
2023-05-15T06:31:06.300Z,34.84
2023-05-15T06:32:06.186Z,34.81
2023-05-15T06:33:06.242Z,34.76
2023-05-15T06:34:06.212Z,34.72
2023-05-15T06:35:06.213Z,34.69
2023-05-15T06:36:06.221Z,34.64
2023-05-15T06:37:06.282Z,34.49
2023-05-15T06:38:06.358Z,34.68
2023-05-15T06:39:06.397Z,34.74
2023-05-15T06:40:06.471Z,34.66
2023-05-15T06:41:06.519Z,34.78
2023-05-15T06:42:06.493Z,34.67
2023-05-15T06:43:07.107Z,34.40
2023-05-15T06:44:06.611Z,34.17
2023-05-15T06:45:06.623Z,33.97
2023-05-15T06:46:06.716Z,33.92
2023-05-15T06:47:06.724Z,33.95
2023-05-15T06:48:06.882Z,34.02
2023-05-15T06:49:06.818Z,33.91
2023-05-15T06:50:06.849Z,33.92
2023-05-15T06:51:06.894Z,33.92
2023-05-15T06:52:06.952Z,34.05
2023-05-15T06:53:06.958Z,33.97
2023-05-15T06:54:06.964Z,33.93
2023-05-15T06:55:07.024Z,34.01
2023-05-15T06:56:07.033Z,33.97
2023-05-15T06:57:07.001Z,34.00
2023-05-15T06:58:07.046Z,33.89
2023-05-15T06:59:07.355Z,33.94
2023-05-15T07:00:07.040Z,33.94
2023-05-15T07:01:07.049Z,33.79
2023-05-15T07:02:07.432Z,33.70
2023-05-15T07:03:07.223Z,33.79
2023-05-15T07:04:07.808Z,33.80
2023-05-15T07:05:07.293Z,33.76
2023-05-15T07:06:07.253Z,33.76
2023-05-15T07:07:07.264Z,33.85
2023-05-15T07:08:07.307Z,33.80
2023-05-15T07:09:07.380Z,33.73
2023-05-15T07:10:07.436Z,33.61
2023-05-15T07:11:07.523Z,33.56
2023-05-15T07:12:07.545Z,33.62
2023-05-15T07:13:07.710Z,33.69
2023-05-15T07:14:07.665Z,33.69
2023-05-15T07:15:07.907Z,33.65
2023-05-15T07:16:07.729Z,33.60
2023-05-15T07:17:07.838Z,33.46
2023-05-15T07:18:08.535Z,33.54
2023-05-15T07:19:07.890Z,33.58
2023-05-15T07:20:07.913Z,33.48
2023-05-15T07:21:08.083Z,33.55
2023-05-15T07:22:08.052Z,33.51
2023-05-15T07:23:08.093Z,33.51
2023-05-15T07:24:08.083Z,33.46
2023-05-15T07:25:08.111Z,33.52
2023-05-15T07:26:13.977Z,33.42
2023-05-15T07:27:09.131Z,33.38
2023-05-15T07:28:08.172Z,33.38
2023-05-15T07:29:08.181Z,33.34
2023-05-15T07:30:08.131Z,33.31
2023-05-15T07:31:08.246Z,33.36
2023-05-15T07:32:08.305Z,33.36
2023-05-15T07:33:08.332Z,33.11
2023-05-15T07:34:08.270Z,32.52
2023-05-15T07:35:08.122Z,32.04
2023-05-15T07:36:08.086Z,31.95
2023-05-15T07:37:08.062Z,32.84
2023-05-15T07:38:08.134Z,32.80
2023-05-15T07:39:08.257Z,32.88
2023-05-15T07:40:08.093Z,33.00
2023-05-15T07:41:08.111Z,33.14
2023-05-15T07:42:08.149Z,33.35
2023-05-15T07:43:08.218Z,33.28
2023-05-15T07:44:08.228Z,33.30
2023-05-15T07:45:08.289Z,33.36
2023-05-15T07:46:08.352Z,33.40
2023-05-15T07:47:08.313Z,33.38
2023-05-15T07:48:08.411Z,33.59
2023-05-15T07:49:08.350Z,33.61
2023-05-15T07:50:08.378Z,33.49
2023-05-15T07:51:08.383Z,33.52
2023-05-15T07:52:08.449Z,33.59
2023-05-15T07:53:08.403Z,33.58
2023-05-15T07:54:08.347Z,33.51
2023-05-15T07:55:08.399Z,33.50
2023-05-15T07:56:08.366Z,33.47
2023-05-15T07:57:08.373Z,33.48
2023-05-15T07:58:08.414Z,33.40
2023-05-15T07:59:08.488Z,33.46
2023-05-15T08:00:08.498Z,33.50
2023-05-15T08:01:08.574Z,33.48
2023-05-15T08:02:08.592Z,33.60
2023-05-15T08:03:09.110Z,33.51
2023-05-15T08:04:08.690Z,33.54
2023-05-15T08:05:08.725Z,33.50
2023-05-15T08:06:08.836Z,33.47
2023-05-15T08:07:08.845Z,33.50
2023-05-15T08:08:08.930Z,33.59
2023-05-15T08:09:09.187Z,33.67
2023-05-15T08:10:09.015Z,33.63
2023-05-15T08:11:09.092Z,33.70
2023-05-15T08:12:09.158Z,33.70
2023-05-15T08:13:09.219Z,33.67
2023-05-15T08:14:10.549Z,33.76
2023-05-15T08:15:09.361Z,33.67
2023-05-15T08:16:09.417Z,33.66
2023-05-15T08:17:09.470Z,33.70
2023-05-15T08:18:09.574Z,33.69
2023-05-15T08:19:09.641Z,33.48
2023-05-15T08:20:09.604Z,33.38
2023-05-15T08:21:09.668Z,33.36
2023-05-15T08:22:09.765Z,33.23
2023-05-15T08:23:09.785Z,33.23
2023-05-15T08:24:09.849Z,33.12
2023-05-15T08:25:10.045Z,33.12
2023-05-15T08:26:09.961Z,33.09
2023-05-15T08:27:10.000Z,32.56
2023-05-15T08:28:10.010Z,31.79
2023-05-15T08:29:10.082Z,31.51
2023-05-15T08:30:10.061Z,30.48
2023-05-15T08:31:10.159Z,30.12
2023-05-15T08:32:10.167Z,30.37
2023-05-15T08:33:10.221Z,30.69
2023-05-15T08:34:10.158Z,31.02
2023-05-15T08:35:10.243Z,31.17
2023-05-15T08:36:10.300Z,31.24
2023-05-15T08:37:10.792Z,31.63
2023-05-15T08:38:10.329Z,32.15
2023-05-15T08:39:10.355Z,32.46
2023-05-15T08:40:10.432Z,32.75
2023-05-15T08:41:10.469Z,33.29
2023-05-15T08:42:10.476Z,33.26
2023-05-15T08:43:10.515Z,33.07
2023-05-15T08:44:11.215Z,33.33
2023-05-15T08:45:11.303Z,33.31
2023-05-15T08:46:10.725Z,33.55
2023-05-15T08:47:10.700Z,33.32
2023-05-15T08:48:10.791Z,32.84
2023-05-15T08:49:10.741Z,33.20
2023-05-15T08:50:10.738Z,33.21
2023-05-15T08:51:10.744Z,33.15
2023-05-15T08:52:10.841Z,33.24
2023-05-15T08:53:10.947Z,32.90
2023-05-15T08:54:10.713Z,32.75
2023-05-15T08:55:10.698Z,32.78
2023-05-15T08:56:10.674Z,33.15
2023-05-15T08:57:10.778Z,33.12
2023-05-15T08:58:10.782Z,33.38
2023-05-15T08:59:10.829Z,33.51
2023-05-15T09:00:10.908Z,33.30
2023-05-15T09:01:10.901Z,33.30
2023-05-15T09:02:10.990Z,33.33
2023-05-15T09:03:10.982Z,33.23
2023-05-15T09:04:11.034Z,33.31
2023-05-15T09:05:10.941Z,33.33
2023-05-15T09:06:11.303Z,33.49
2023-05-15T09:07:11.011Z,33.55
2023-05-15T09:08:11.056Z,33.51
2023-05-15T09:09:11.054Z,33.44
2023-05-15T09:10:11.129Z,33.47
2023-05-15T09:11:11.118Z,33.43
2023-05-15T09:12:11.255Z,33.44
2023-05-15T09:13:11.212Z,33.33
2023-05-15T09:14:11.316Z,33.36
2023-05-15T09:15:11.356Z,32.27
2023-05-15T09:16:11.525Z,32.98
2023-05-15T09:17:11.931Z,32.89
2023-05-15T09:18:13.841Z,32.93
2023-05-15T09:19:11.937Z,31.88
2023-05-15T09:20:11.671Z,32.04
2023-05-15T09:21:12.280Z,32.38
2023-05-15T09:22:11.720Z,32.07
2023-05-15T09:23:11.722Z,32.84
2023-05-15T09:24:11.714Z,33.05
2023-05-15T09:25:11.841Z,33.14
2023-05-15T09:26:11.737Z,32.78
2023-05-15T09:27:11.759Z,33.13
2023-05-15T09:28:11.765Z,33.03
2023-05-15T09:29:12.340Z,33.02
2023-05-15T09:30:11.864Z,32.95
2023-05-15T09:31:12.095Z,32.85
2023-05-15T09:32:12.362Z,32.75
2023-05-15T09:33:12.333Z,32.61
2023-05-15T09:34:12.288Z,32.65
2023-05-15T09:35:12.320Z,32.67
2023-05-15T09:36:12.182Z,32.59
2023-05-15T09:37:12.185Z,32.59
2023-05-15T09:38:12.240Z,32.59
2023-05-15T09:39:12.240Z,32.65
2023-05-15T09:40:12.246Z,32.59
2023-05-15T09:41:12.937Z,32.57
2023-05-15T09:42:12.434Z,32.67
2023-05-15T09:43:12.342Z,32.63
2023-05-15T09:44:12.344Z,32.69
2023-05-15T09:45:12.338Z,32.69
2023-05-15T09:46:12.434Z,32.69
2023-05-15T09:47:12.449Z,32.81
2023-05-15T09:48:12.469Z,32.83
2023-05-15T09:49:12.431Z,32.86
2023-05-15T09:50:12.482Z,32.86
2023-05-15T09:51:12.412Z,32.81
2023-05-15T09:52:12.434Z,32.81
2023-05-15T09:53:12.403Z,32.82
2023-05-15T09:54:12.500Z,32.87
2023-05-15T09:55:12.415Z,32.75
2023-05-15T09:56:12.481Z,32.78
2023-05-15T09:57:12.404Z,32.86
2023-05-15T09:58:12.425Z,32.86
2023-05-15T09:59:12.580Z,32.79
2023-05-15T10:00:12.441Z,32.80
2023-05-15T10:01:12.507Z,32.82
2023-05-15T10:02:12.397Z,32.76
2023-05-15T10:03:12.405Z,32.52
2023-05-15T10:04:12.410Z,32.73
2023-05-15T10:05:12.420Z,32.84
2023-05-15T10:06:12.594Z,32.85
2023-05-15T10:07:12.437Z,32.68
2023-05-15T10:08:12.477Z,32.82
2023-05-15T10:09:12.546Z,32.81
2023-05-15T10:10:12.449Z,32.70
2023-05-15T10:11:12.539Z,32.66
2023-05-15T10:12:12.479Z,32.44
2023-05-15T10:13:12.539Z,32.55
2023-05-15T10:14:12.513Z,32.50
2023-05-15T10:15:12.543Z,32.57
2023-05-15T10:16:12.605Z,32.56
2023-05-15T10:17:12.666Z,32.60
2023-05-15T10:18:12.694Z,32.59
2023-05-15T10:19:12.877Z,32.47
2023-05-15T10:20:12.826Z,32.38
2023-05-15T10:21:12.902Z,32.43
2023-05-15T10:22:12.932Z,32.28
2023-05-15T10:23:13.076Z,32.14
2023-05-15T10:24:13.071Z,32.05
2023-05-15T10:25:13.337Z,32.12
2023-05-15T10:26:13.197Z,31.16
2023-05-15T10:27:13.220Z,31.04
2023-05-15T10:28:13.259Z,31.11
2023-05-15T10:29:13.194Z,30.93
2023-05-15T10:30:13.410Z,31.11
2023-05-15T10:31:13.337Z,31.18
2023-05-15T10:32:13.319Z,31.13
2023-05-15T10:33:13.467Z,31.43
2023-05-15T10:34:13.429Z,31.83
2023-05-15T10:35:13.538Z,32.15
2023-05-15T10:36:13.626Z,32.31
2023-05-15T10:37:13.550Z,32.41
2023-05-15T10:38:13.591Z,32.55
2023-05-15T10:39:13.652Z,32.71
2023-05-15T10:40:13.748Z,32.76
2023-05-15T10:41:17.658Z,32.89
2023-05-15T10:42:13.781Z,32.91
2023-05-15T10:43:13.712Z,32.91
2023-05-15T10:44:13.694Z,32.93
2023-05-15T10:45:13.712Z,33.00
2023-05-15T10:46:13.681Z,33.09
2023-05-15T10:47:13.866Z,32.96
2023-05-15T10:48:13.806Z,33.04
2023-05-15T10:49:13.683Z,33.07
2023-05-15T10:50:13.698Z,33.07
2023-05-15T10:51:13.806Z,33.06
2023-05-15T10:52:13.671Z,33.07
2023-05-15T10:53:13.629Z,33.09
2023-05-15T10:54:13.663Z,33.19
2023-05-15T10:55:13.685Z,33.17
2023-05-15T10:56:13.800Z,33.07
2023-05-15T10:57:13.665Z,33.11
2023-05-15T10:58:13.586Z,33.08
2023-05-15T10:59:13.618Z,33.17
2023-05-15T11:00:13.624Z,33.19
2023-05-15T11:01:13.646Z,33.22
2023-05-15T11:02:13.604Z,33.19
2023-05-15T11:03:13.638Z,33.14
2023-05-15T11:04:13.643Z,33.41
2023-05-15T11:05:13.598Z,33.27
2023-05-15T11:06:13.594Z,33.27
2023-05-15T11:07:13.622Z,33.32
2023-05-15T11:08:13.650Z,33.22
2023-05-15T11:09:13.724Z,33.28
2023-05-15T11:10:13.856Z,33.44
2023-05-15T11:11:13.757Z,33.34
2023-05-15T11:12:13.780Z,33.30
2023-05-15T11:13:14.374Z,33.34
2023-05-15T11:14:13.906Z,33.40
2023-05-15T11:15:13.979Z,33.43
2023-05-15T11:16:14.299Z,33.41
2023-05-15T11:17:14.060Z,33.41
2023-05-15T11:18:14.163Z,33.55
2023-05-15T11:19:14.275Z,33.35
2023-05-15T11:20:14.233Z,33.32
2023-05-15T11:21:14.145Z,33.21
2023-05-15T11:22:14.277Z,33.06
2023-05-15T11:23:14.287Z,32.97
2023-05-15T11:24:14.296Z,32.91
2023-05-15T11:25:14.330Z,32.81
2023-05-15T11:26:14.415Z,32.67
2023-05-15T11:27:14.524Z,32.60
2023-05-15T11:28:14.478Z,32.50
2023-05-15T11:29:14.497Z,32.35
2023-05-15T11:30:14.691Z,32.32
2023-05-15T11:31:14.597Z,32.25
2023-05-15T11:32:14.604Z,32.19
2023-05-15T11:33:14.777Z,32.12
2023-05-15T11:34:14.736Z,32.08
2023-05-15T11:35:14.840Z,31.98
2023-05-15T11:36:14.835Z,31.90
2023-05-15T11:37:14.879Z,31.85
2023-05-15T11:38:14.916Z,31.81
2023-05-15T11:39:14.955Z,31.70
2023-05-15T11:40:15.068Z,31.66
2023-05-15T11:41:15.107Z,31.64
2023-05-15T11:42:15.186Z,31.56
2023-05-15T11:43:15.221Z,31.51
2023-05-15T11:44:15.294Z,31.42
2023-05-15T11:45:15.304Z,31.41
2023-05-15T11:46:15.495Z,31.37
2023-05-15T11:47:16.114Z,31.34
2023-05-15T11:48:15.478Z,31.30
2023-05-15T11:49:15.561Z,31.34
2023-05-15T11:50:15.588Z,31.31
2023-05-15T11:51:15.672Z,31.20
2023-05-15T11:52:15.704Z,31.27
2023-05-15T11:53:15.770Z,31.25
2023-05-15T11:54:15.827Z,31.24
2023-05-15T11:55:15.903Z,31.14
2023-05-15T11:56:15.950Z,31.24
2023-05-15T11:57:15.984Z,31.22
2023-05-15T11:58:16.064Z,31.22
2023-05-15T11:59:16.162Z,31.22
2023-05-15T12:00:16.162Z,31.20
2023-05-15T12:01:16.233Z,31.14
2023-05-15T12:02:16.297Z,30.98
2023-05-15T12:03:16.487Z,31.06
2023-05-15T12:04:16.519Z,31.37
2023-05-15T12:05:16.373Z,31.33
2023-05-15T12:06:16.408Z,31.67
2023-05-15T12:07:16.439Z,31.48
2023-05-15T12:08:16.401Z,32.00
2023-05-15T12:09:16.415Z,31.94
2023-05-15T12:10:16.444Z,32.46
2023-05-15T12:11:16.722Z,32.60
2023-05-15T12:12:16.468Z,32.72
2023-05-15T12:13:16.460Z,32.76
2023-05-15T12:14:16.482Z,32.69
2023-05-15T12:15:16.525Z,32.77
2023-05-15T12:16:16.684Z,32.87
2023-05-15T12:17:16.626Z,32.96
2023-05-15T12:18:16.818Z,32.86
2023-05-15T12:19:16.877Z,32.89
2023-05-15T12:20:16.786Z,32.99
2023-05-15T12:21:16.930Z,32.99
2023-05-15T12:22:16.944Z,32.88
2023-05-15T12:23:17.144Z,32.88
2023-05-15T12:24:17.023Z,32.95
2023-05-15T12:25:17.015Z,32.87
2023-05-15T12:26:17.070Z,32.88
2023-05-15T12:27:17.100Z,32.87
2023-05-15T12:28:17.182Z,32.76
2023-05-15T12:29:17.215Z,32.72
2023-05-15T12:30:17.225Z,32.66
2023-05-15T12:31:17.301Z,32.44
2023-05-15T12:32:17.507Z,32.37
2023-05-15T12:33:17.331Z,32.23
2023-05-15T12:34:17.395Z,32.03
2023-05-15T12:35:17.405Z,31.91
2023-05-15T12:36:17.451Z,31.90
2023-05-15T12:37:17.482Z,31.79
2023-05-15T12:38:17.513Z,31.79
2023-05-15T12:39:17.536Z,31.66
2023-05-15T12:40:17.891Z,30.71
2023-05-15T12:41:17.690Z,30.22
2023-05-15T12:42:17.675Z,30.41
2023-05-15T12:43:17.769Z,30.85
2023-05-15T12:44:17.784Z,30.78
2023-05-15T12:45:17.745Z,31.05
2023-05-15T12:46:17.829Z,31.25
2023-05-15T12:47:17.866Z,30.55
2023-05-15T12:48:17.836Z,29.63
2023-05-15T12:49:17.842Z,29.79
2023-05-15T12:50:17.881Z,29.37
2023-05-15T12:51:17.859Z,28.76
2023-05-15T12:52:17.906Z,28.68
2023-05-15T12:53:17.912Z,29.14